createdAt,value
2018-02-09T00:02:59.177Z,99718.63
2018-02-09T00:09:03.662Z,99707.19
2018-02-09T00:15:08.473Z,99700.98
2018-02-09T00:21:13.722Z,99696.11
2018-02-09T00:27:18.231Z,99698.52
2018-02-09T00:33:23.053Z,99699.45
2018-02-09T00:39:27.550Z,99707.19
2018-02-09T00:45:32.104Z,99697.83
2018-02-09T00:51:36.677Z,99693.88
2018-02-09T00:57:41.179Z,99700.06
2018-02-09T01:03:45.675Z,99689.95
2018-02-09T01:09:50.204Z,99684.73
2018-02-09T01:15:55.114Z,99675.94
2018-02-09T01:21:59.614Z,99669.22
2018-02-09T01:28:04.119Z,99665.31
2018-02-09T01:34:08.728Z,99653.67
2018-02-09T01:40:13.572Z,99659.59
2018-02-09T01:46:18.090Z,99655.17
2018-02-09T01:52:22.836Z,99651.58
2018-02-09T01:58:27.343Z,99641.05
2018-02-09T02:04:32.638Z,99646.16
2018-02-09T02:10:37.958Z,99640.08
2018-02-09T02:16:42.445Z,99641.75
2018-02-09T02:22:47.155Z,99637.70
2018-02-09T02:28:53.181Z,99629.56
2018-02-09T02:34:57.709Z,99627.19
2018-02-09T02:41:02.199Z,99615.48
2018-02-09T02:47:06.666Z,99621.28
2018-02-09T02:53:11.300Z,99612.41
2018-02-09T02:59:15.808Z,99604.63
2018-02-09T03:05:20.888Z,99597.25
2018-02-09T03:11:26.517Z,99593.30
2018-02-09T03:17:31.120Z,99586.93
2018-02-09T03:23:35.683Z,99584.58
2018-02-09T03:29:40.172Z,99578.15
2018-02-09T03:35:44.649Z,99577.54
2018-02-09T03:41:49.211Z,99578.42
2018-02-09T03:47:53.988Z,99568.52
2018-02-09T03:53:58.636Z,99556.22
2018-02-09T04:00:03.260Z,99557.38
2018-02-09T04:06:07.834Z,99558.85
2018-02-09T04:12:12.318Z,99553.89
2018-02-09T04:18:16.978Z,99546.07
2018-02-09T04:24:22.358Z,99540.70
2018-02-09T04:30:26.948Z,99542.55
2018-02-09T04:36:32.291Z,99541.09
2018-02-09T04:42:36.913Z,99535.02
2018-02-09T04:48:41.551Z,99535.23
2018-02-09T04:54:46.420Z,99520.92
2018-02-09T05:00:51.743Z,99515.06
2018-02-09T05:06:56.383Z,99516.70
2018-02-09T05:13:01.003Z,99516.41
2018-02-09T05:19:05.838Z,99509.27
2018-02-09T05:25:10.591Z,99508.50
2018-02-09T05:31:15.851Z,99504.11
2018-02-09T05:37:20.633Z,99506.48
2018-02-09T05:43:25.274Z,99509.92
2018-02-09T05:49:29.943Z,99507.64
2018-02-09T05:55:35.263Z,99504.98
2018-02-09T06:01:39.956Z,99502.24
2018-02-09T06:07:44.588Z,99496.14
2018-02-09T06:13:49.110Z,99496.50
2018-02-09T06:19:54.143Z,99496.67
2018-02-09T06:25:58.770Z,99489.00
2018-02-09T06:32:03.429Z,99493.73
2018-02-09T06:38:08.685Z,99494.19
2018-02-09T06:44:13.173Z,99491.46
2018-02-09T06:50:17.768Z,99494.14
2018-02-09T06:56:22.858Z,99485.16
2018-02-09T07:02:27.754Z,99489.07
2018-02-09T07:08:32.237Z,99481.25
2018-02-09T07:14:36.893Z,99491.02
2018-02-09T07:20:41.482Z,99505.34
2018-02-09T07:26:47.739Z,99506.78
2018-02-09T07:32:53.020Z,99523.05
2018-02-09T07:38:57.574Z,99528.35
2018-02-09T07:45:03.940Z,99528.82
2018-02-09T07:51:08.468Z,99529.21
2018-02-09T07:57:12.948Z,99514.86
2018-02-09T08:03:18.248Z,99507.58
2018-02-09T08:09:23.069Z,99502.00
2018-02-09T08:15:27.649Z,99497.72
2018-02-09T08:21:32.904Z,99497.04
2018-02-09T08:27:37.414Z,99492.72
2018-02-09T08:33:42.688Z,99495.59
2018-02-09T08:39:47.178Z,99494.90
2018-02-09T08:45:53.092Z,99496.25
2018-02-09T08:51:58.338Z,99487.56
2018-02-09T08:58:03.005Z,99481.85
2018-02-09T09:04:07.530Z,99487.70
2018-02-09T09:10:12.829Z,99487.39
2018-02-09T09:16:18.147Z,99471.48
2018-02-09T09:22:22.826Z,99464.58
2018-02-09T09:28:27.445Z,99453.81
2018-02-09T09:34:32.768Z,99448.20
2018-02-09T09:40:38.046Z,99442.93
2018-02-09T09:46:42.551Z,99440.26
2018-02-09T09:52:47.068Z,99444.13
2018-02-09T09:58:51.605Z,99431.72
2018-02-09T10:04:56.206Z,99423.11
2018-02-09T10:11:01.509Z,99417.88
2018-02-09T10:17:06.766Z,99416.95
2018-02-09T10:23:11.275Z,99410.45
2018-02-09T10:29:15.781Z,99404.44
2018-02-09T10:35:21.074Z,99396.41
2018-02-09T10:41:25.757Z,99391.89
2018-02-09T10:47:30.397Z,99385.57
2018-02-09T10:53:35.008Z,99373.86
2018-02-09T10:59:39.633Z,99369.88
2018-02-09T11:05:44.287Z,99364.04
2018-02-09T11:11:48.924Z,99354.47
2018-02-09T11:17:53.945Z,99345.31
2018-02-09T11:23:58.528Z,99337.44
2018-02-09T11:30:03.094Z,99330.89
2018-02-09T11:36:07.613Z,99321.07
2018-02-09T11:42:12.304Z,99306.16
2018-02-09T11:48:16.803Z,99301.55
2018-02-09T11:54:21.587Z,99301.37
2018-02-09T12:00:26.274Z,99293.53
2018-02-09T12:06:30.749Z,99292.55
2018-02-09T12:12:35.266Z,99291.98
2018-02-09T12:18:40.032Z,99278.18
2018-02-09T12:24:45.413Z,99282.97
2018-02-09T12:30:50.635Z,99277.00
2018-02-09T12:36:56.240Z,99270.25
2018-02-09T12:43:00.964Z,99266.57
2018-02-09T12:49:05.448Z,99258.31
2018-02-09T12:55:09.938Z,99254.55
2018-02-09T13:01:14.579Z,99245.73
2018-02-09T13:07:19.443Z,99239.98
2018-02-09T13:13:24.288Z,99238.25
2018-02-09T13:19:28.970Z,99233.09
2018-02-09T13:25:33.490Z,99221.02
2018-02-09T13:31:39.570Z,99217.03
2018-02-09T13:37:44.079Z,99219.81
2018-02-09T13:43:48.553Z,99218.49
2018-02-09T13:49:53.264Z,99210.76
2018-02-09T13:55:57.893Z,99209.91
2018-02-09T14:02:02.528Z,99209.99
2018-02-09T14:08:07.056Z,99197.56
2018-02-09T14:14:11.529Z,99199.77
2018-02-09T14:20:16.129Z,99196.38
2018-02-09T14:26:21.405Z,99191.48
2018-02-09T14:32:25.977Z,99190.23
2018-02-09T14:38:30.450Z,99183.89
2018-02-09T14:44:34.932Z,99181.02
2018-02-09T14:50:39.435Z,99179.80
2018-02-09T14:56:44.662Z,99176.88
2018-02-09T15:02:49.472Z,99176.77
2018-02-09T15:08:54.434Z,99176.00
2018-02-09T15:14:58.895Z,99180.24
2018-02-09T15:21:03.427Z,99182.48
2018-02-09T15:27:07.931Z,99174.90
2018-02-09T15:33:12.434Z,99176.91
2018-02-09T15:39:16.916Z,99175.41
2018-02-09T15:45:22.204Z,99164.98
2018-02-09T15:51:28.274Z,99165.62
2018-02-09T15:57:32.845Z,99170.59
2018-02-09T16:03:37.585Z,99162.83
2018-02-09T16:09:42.127Z,99165.67
2018-02-09T16:15:46.621Z,99170.69
2018-02-09T16:21:51.488Z,99163.37
2018-02-09T16:27:56.057Z,99163.59
2018-02-09T16:34:00.655Z,99171.33
2018-02-09T16:40:05.129Z,99179.44
2018-02-09T16:46:09.834Z,99176.05
2018-02-09T16:52:15.243Z,99177.89
2018-02-09T16:58:20.112Z,99186.78
2018-02-09T17:04:24.982Z,99192.96
2018-02-09T17:10:29.479Z,99194.02
2018-02-09T17:16:34.705Z,99195.03
2018-02-09T17:22:39.171Z,99205.09
2018-02-09T17:28:43.650Z,99206.72
2018-02-09T17:34:48.122Z,99206.86
2018-02-09T17:40:53.191Z,99209.77
2018-02-09T17:46:58.426Z,99208.45
2018-02-09T17:53:02.899Z,99213.95
2018-02-09T17:59:07.371Z,99215.34
2018-02-09T18:05:11.900Z,99220.80
2018-02-09T18:11:16.510Z,99227.97
2018-02-09T18:17:21.952Z,99232.41
2018-02-09T18:23:27.264Z,99240.59
2018-02-09T18:29:31.757Z,99242.41
2018-02-09T18:35:37.093Z,99244.89
2018-02-09T18:41:41.600Z,99253.64
2018-02-09T18:47:46.295Z,99248.09
2018-02-09T18:53:50.979Z,99243.65
2018-02-09T18:59:55.575Z,99244.22
2018-02-09T19:06:00.088Z,99237.28
2018-02-09T19:12:04.655Z,99243.38
2018-02-09T19:18:10.014Z,99251.41
2018-02-09T19:24:14.613Z,99257.97
2018-02-09T19:30:20.144Z,99254.02
2018-02-09T19:36:24.869Z,99252.32
2018-02-09T19:42:29.351Z,99258.73
2018-02-09T19:48:33.998Z,99253.59
2018-02-09T19:54:38.623Z,99255.33
2018-02-09T20:00:43.274Z,99255.26
2018-02-09T20:06:48.136Z,99251.87
2018-02-09T20:12:53.033Z,99248.17
2018-02-09T20:18:57.573Z,99250.73
2018-02-09T20:25:02.854Z,99239.92
2018-02-09T20:31:08.830Z,99239.77
2018-02-09T20:37:13.317Z,99242.41
2018-02-09T20:43:17.886Z,99246.09
2018-02-09T20:49:22.843Z,99242.89
2018-02-09T20:55:27.631Z,99247.27
2018-02-09T21:01:32.927Z,99257.59
2018-02-09T21:07:37.519Z,99255.59
2018-02-09T21:13:42.000Z,99263.52
2018-02-09T21:19:46.562Z,99259.48
2018-02-09T21:25:51.090Z,99257.74
2018-02-09T21:31:55.756Z,99263.16
2018-02-09T21:38:00.419Z,99269.13
2018-02-09T21:44:04.998Z,99269.05
2018-02-09T21:50:09.549Z,99269.28
2018-02-09T21:56:14.780Z,99267.25
2018-02-09T22:02:19.793Z,99269.48
2018-02-09T22:08:24.606Z,99272.94
2018-02-09T22:14:29.917Z,99276.70
2018-02-09T22:20:35.158Z,99272.91
2018-02-09T22:26:39.718Z,99274.33
2018-02-09T22:32:44.302Z,99275.23
2018-02-09T22:38:48.950Z,99282.58
2018-02-09T22:44:54.215Z,99281.91
2018-02-09T22:50:58.730Z,99285.63
2018-02-09T22:57:03.559Z,99282.72
2018-02-09T23:03:08.166Z,99280.31
2018-02-09T23:09:12.695Z,99280.99
2018-02-09T23:15:17.160Z,99279.52
2018-02-09T23:21:22.539Z,99283.07
2018-02-09T23:27:28.011Z,99288.08
2018-02-09T23:33:32.667Z,99284.72
2018-02-09T23:39:37.275Z,99293.85
2018-02-09T23:45:41.764Z,99288.31
2018-02-09T23:51:46.408Z,99288.08
2018-02-09T23:57:51.654Z,99287.63
